sensor_id;sensor_type;location;lat;lon;timestamp;P1;durP1;ratioP1;P2;durP2;ratioP2
79023;SDS011;70306;44.764;37.688;2023-10-13T00:00:47;39.60;;;8.02;;
79023;SDS011;70306;44.764;37.688;2023-10-13T00:01:49;22.90;;;5.95;;
79023;SDS011;70306;44.764;37.688;2023-10-13T00:02:54;13.95;;;7.60;;
79023;SDS011;70306;44.764;37.688;2023-10-13T00:03:56;50.42;;;8.90;;
79023;SDS011;70306;44.764;37.688;2023-10-13T00:04:58;116.63;;;13.77;;
79023;SDS011;70306;44.764;37.688;2023-10-13T00:06:01;189.35;;;18.67;;
79023;SDS011;70306;44.764;37.688;2023-10-13T00:07:26;54.60;;;8.23;;
79023;SDS011;70306;44.764;37.688;2023-10-13T00:08:29;26.08;;;6.55;;
79023;SDS011;70306;44.764;37.688;2023-10-13T00:09:31;29.17;;;6.47;;
79023;SDS011;70306;44.764;37.688;2023-10-13T00:10:39;28.85;;;7.32;;
79023;SDS011;70306;44.764;37.688;2023-10-13T00:11:42;72.70;;;9.38;;
79023;SDS011;70306;44.764;37.688;2023-10-13T00:12:45;55.78;;;9.13;;
79023;SDS011;70306;44.764;37.688;2023-10-13T00:13:54;75.68;;;9.32;;
79023;SDS011;70306;44.764;37.688;2023-10-13T00:14:55;61.38;;;7.20;;
79023;SDS011;70306;44.764;37.688;2023-10-13T00:15:57;61.42;;;7.88;;
79023;SDS011;70306;44.764;37.688;2023-10-13T00:17:03;93.95;;;11.98;;
79023;SDS011;70306;44.764;37.688;2023-10-13T00:18:06;80.35;;;8.57;;
79023;SDS011;70306;44.764;37.688;2023-10-13T00:19:13;90.30;;;8.25;;
79023;SDS011;70306;44.764;37.688;2023-10-13T00:20:15;85.10;;;7.45;;
79023;SDS011;70306;44.764;37.688;2023-10-13T00:21:39;116.25;;;10.40;;
79023;SDS011;70306;44.764;37.688;2023-10-13T00:22:43;116.20;;;13.50;;
79023;SDS011;70306;44.764;37.688;2023-10-13T00:23:46;62.28;;;8.88;;
79023;SDS011;70306;44.764;37.688;2023-10-13T00:24:58;25.85;;;7.55;;
79023;SDS011;70306;44.764;37.688;2023-10-13T00:25:59;39.40;;;8.10;;
79023;SDS011;70306;44.764;37.688;2023-10-13T00:27:03;51.30;;;7.00;;
79023;SDS011;70306;44.764;37.688;2023-10-13T00:28:07;31.10;;;6.55;;
79023;SDS011;70306;44.764;37.688;2023-10-13T00:29:10;18.33;;;5.90;;
79023;SDS011;70306;44.764;37.688;2023-10-13T00:30:17;73.15;;;10.88;;
79023;SDS011;70306;44.764;37.688;2023-10-13T00:31:22;62.40;;;9.15;;
79023;SDS011;70306;44.764;37.688;2023-10-13T00:32:23;77.88;;;9.70;;
79023;SDS011;70306;44.764;37.688;2023-10-13T00:33:28;47.72;;;8.15;;
79023;SDS011;70306;44.764;37.688;2023-10-13T00:34:33;55.03;;;8.55;;
79023;SDS011;70306;44.764;37.688;2023-10-13T00:35:38;33.35;;;6.20;;
79023;SDS011;70306;44.764;37.688;2023-10-13T00:36:45;45.10;;;7.53;;
79023;SDS011;70306;44.764;37.688;2023-10-13T00:38:10;33.17;;;5.72;;
79023;SDS011;70306;44.764;37.688;2023-10-13T00:39:15;33.30;;;6.68;;
79023;SDS011;70306;44.764;37.688;2023-10-13T00:40:17;43.08;;;7.15;;
79023;SDS011;70306;44.764;37.688;2023-10-13T00:41:31;32.25;;;5.60;;
79023;SDS011;70306;44.764;37.688;2023-10-13T00:42:52;32.80;;;6.15;;
79023;SDS011;70306;44.764;37.688;2023-10-13T00:43:54;25.05;;;5.25;;
79023;SDS011;70306;44.764;37.688;2023-10-13T00:45:05;31.67;;;5.10;;
79023;SDS011;70306;44.764;37.688;2023-10-13T00:46:08;17.55;;;4.15;;
79023;SDS011;70306;44.764;37.688;2023-10-13T00:47:14;25.70;;;5.20;;
79023;SDS011;70306;44.764;37.688;2023-10-13T00:48:40;9.00;;;3.58;;
79023;SDS011;70306;44.764;37.688;2023-10-13T00:49:52;13.82;;;3.25;;
79023;SDS011;70306;44.764;37.688;2023-10-13T00:50:55;8.93;;;3.28;;
79023;SDS011;70306;44.764;37.688;2023-10-13T00:51:58;54.97;;;5.70;;
79023;SDS011;70306;44.764;37.688;2023-10-13T00:52:59;39.13;;;4.05;;
79023;SDS011;70306;44.764;37.688;2023-10-13T00:54:05;10.32;;;3.50;;
79023;SDS011;70306;44.764;37.688;2023-10-13T00:55:13;16.08;;;3.20;;
79023;SDS011;70306;44.764;37.688;2023-10-13T00:56:15;22.50;;;3.25;;
79023;SDS011;70306;44.764;37.688;2023-10-13T00:57:22;11.90;;;2.83;;
79023;SDS011;70306;44.764;37.688;2023-10-13T00:58:33;11.60;;;2.70;;
79023;SDS011;70306;44.764;37.688;2023-10-13T00:59:36;22.88;;;4.07;;
79023;SDS011;70306;44.764;37.688;2023-10-13T01:00:38;10.18;;;2.88;;
79023;SDS011;70306;44.764;37.688;2023-10-13T01:01:48;4.57;;;3.03;;
79023;SDS011;70306;44.764;37.688;2023-10-13T01:02:57;10.52;;;3.15;;
79023;SDS011;70306;44.764;37.688;2023-10-13T01:04:06;16.70;;;3.42;;
79023;SDS011;70306;44.764;37.688;2023-10-13T01:05:10;16.48;;;4.03;;
79023;SDS011;70306;44.764;37.688;2023-10-13T01:06:23;60.25;;;7.68;;
79023;SDS011;70306;44.764;37.688;2023-10-13T01:07:28;29.90;;;5.65;;
79023;SDS011;70306;44.764;37.688;2023-10-13T01:08:33;19.35;;;3.45;;
79023;SDS011;70306;44.764;37.688;2023-10-13T01:09:42;19.17;;;3.95;;
79023;SDS011;70306;44.764;37.688;2023-10-13T01:10:44;18.27;;;3.65;;
79023;SDS011;70306;44.764;37.688;2023-10-13T01:11:49;19.42;;;3.10;;
79023;SDS011;70306;44.764;37.688;2023-10-13T01:12:55;31.70;;;4.18;;
79023;SDS011;70306;44.764;37.688;2023-10-13T01:13:56;27.13;;;4.25;;
79023;SDS011;70306;44.764;37.688;2023-10-13T01:14:58;35.72;;;4.03;;
79023;SDS011;70306;44.764;37.688;2023-10-13T01:16:00;23.65;;;4.35;;
79023;SDS011;70306;44.764;37.688;2023-10-13T01:17:02;73.40;;;6.15;;
79023;SDS011;70306;44.764;37.688;2023-10-13T01:18:06;56.05;;;5.95;;
79023;SDS011;70306;44.764;37.688;2023-10-13T01:19:15;24.15;;;3.45;;
79023;SDS011;70306;44.764;37.688;2023-10-13T01:20:25;34.15;;;3.60;;
79023;SDS011;70306;44.764;37.688;2023-10-13T01:21:27;26.33;;;4.32;;
79023;SDS011;70306;44.764;37.688;2023-10-13T01:22:29;92.40;;;8.77;;
79023;SDS011;70306;44.764;37.688;2023-10-13T01:23:32;38.63;;;3.30;;
79023;SDS011;70306;44.764;37.688;2023-10-13T01:24:39;23.65;;;3.40;;
79023;SDS011;70306;44.764;37.688;2023-10-13T01:25:41;23.67;;;4.15;;
79023;SDS011;70306;44.764;37.688;2023-10-13T01:26:43;43.08;;;4.75;;
79023;SDS011;70306;44.764;37.688;2023-10-13T01:27:45;27.77;;;3.70;;
79023;SDS011;70306;44.764;37.688;2023-10-13T01:28:51;26.63;;;3.28;;
79023;SDS011;70306;44.764;37.688;2023-10-13T01:29:55;26.13;;;4.72;;
79023;SDS011;70306;44.764;37.688;2023-10-13T01:30:59;33.25;;;4.07;;
79023;SDS011;70306;44.764;37.688;2023-10-13T01:32:02;16.23;;;3.95;;
79023;SDS011;70306;44.764;37.688;2023-10-13T01:33:04;12.88;;;3.83;;
79023;SDS011;70306;44.764;37.688;2023-10-13T01:34:06;11.65;;;3.47;;
79023;SDS011;70306;44.764;37.688;2023-10-13T01:35:08;15.20;;;2.85;;
79023;SDS011;70306;44.764;37.688;2023-10-13T01:36:09;9.75;;;3.03;;
79023;SDS011;70306;44.764;37.688;2023-10-13T01:37:13;21.00;;;3.92;;
79023;SDS011;70306;44.764;37.688;2023-10-13T01:38:17;30.15;;;3.65;;
79023;SDS011;70306;44.764;37.688;2023-10-13T01:39:19;16.70;;;3.35;;
79023;SDS011;70306;44.764;37.688;2023-10-13T01:40:21;12.57;;;3.25;;
79023;SDS011;70306;44.764;37.688;2023-10-13T01:41:30;8.75;;;3.00;;
79023;SDS011;70306;44.764;37.688;2023-10-13T01:42:32;13.25;;;2.90;;
79023;SDS011;70306;44.764;37.688;2023-10-13T01:43:37;19.67;;;3.45;;
79023;SDS011;70306;44.764;37.688;2023-10-13T01:44:38;12.65;;;3.30;;
79023;SDS011;70306;44.764;37.688;2023-10-13T01:45:40;24.80;;;3.60;;
79023;SDS011;70306;44.764;37.688;2023-10-13T01:46:50;9.82;;;3.08;;
79023;SDS011;70306;44.764;37.688;2023-10-13T01:47:52;9.07;;;2.95;;
79023;SDS011;70306;44.764;37.688;2023-10-13T01:48:54;8.20;;;2.28;;
79023;SDS011;70306;44.764;37.688;2023-10-13T01:49:58;13.27;;;3.40;;
79023;SDS011;70306;44.764;37.688;2023-10-13T01:51:14;11.48;;;2.85;;
79023;SDS011;70306;44.764;37.688;2023-10-13T01:52:15;15.93;;;3.05;;
79023;SDS011;70306;44.764;37.688;2023-10-13T01:53:17;10.70;;;2.78;;
79023;SDS011;70306;44.764;37.688;2023-10-13T01:54:20;11.40;;;2.85;;
79023;SDS011;70306;44.764;37.688;2023-10-13T01:55:22;8.25;;;2.72;;
79023;SDS011;70306;44.764;37.688;2023-10-13T01:56:24;16.10;;;3.92;;
79023;SDS011;70306;44.764;37.688;2023-10-13T01:57:27;20.90;;;4.35;;
79023;SDS011;70306;44.764;37.688;2023-10-13T01:58:29;27.23;;;4.32;;
79023;SDS011;70306;44.764;37.688;2023-10-13T01:59:31;18.73;;;4.88;;
79023;SDS011;70306;44.764;37.688;2023-10-13T02:00:32;16.88;;;3.85;;
79023;SDS011;70306;44.764;37.688;2023-10-13T02:01:40;22.40;;;3.80;;
79023;SDS011;70306;44.764;37.688;2023-10-13T02:02:42;28.58;;;5.85;;
79023;SDS011;70306;44.764;37.688;2023-10-13T02:03:46;22.50;;;4.43;;
79023;SDS011;70306;44.764;37.688;2023-10-13T02:04:49;21.17;;;3.97;;
79023;SDS011;70306;44.764;37.688;2023-10-13T02:05:56;26.02;;;4.32;;
79023;SDS011;70306;44.764;37.688;2023-10-13T02:07:05;12.82;;;3.30;;
79023;SDS011;70306;44.764;37.688;2023-10-13T02:08:10;14.30;;;3.55;;
79023;SDS011;70306;44.764;37.688;2023-10-13T02:09:18;20.85;;;4.05;;
79023;SDS011;70306;44.764;37.688;2023-10-13T02:10:30;11.48;;;3.53;;
79023;SDS011;70306;44.764;37.688;2023-10-13T02:11:33;22.85;;;4.57;;
79023;SDS011;70306;44.764;37.688;2023-10-13T02:12:35;11.98;;;3.25;;
79023;SDS011;70306;44.764;37.688;2023-10-13T02:13:49;8.23;;;2.60;;
79023;SDS011;70306;44.764;37.688;2023-10-13T02:14:55;10.73;;;2.60;;
79023;SDS011;70306;44.764;37.688;2023-10-13T02:15:57;10.68;;;3.05;;
79023;SDS011;70306;44.764;37.688;2023-10-13T02:17:01;24.05;;;4.82;;
79023;SDS011;70306;44.764;37.688;2023-10-13T02:18:16;17.45;;;3.60;;
79023;SDS011;70306;44.764;37.688;2023-10-13T02:19:29;19.50;;;3.97;;
79023;SDS011;70306;44.764;37.688;2023-10-13T02:20:31;16.77;;;3.50;;
79023;SDS011;70306;44.764;37.688;2023-10-13T02:21:43;127.88;;;9.85;;
79023;SDS011;70306;44.764;37.688;2023-10-13T02:22:46;49.05;;;6.90;;
79023;SDS011;70306;44.764;37.688;2023-10-13T02:23:51;16.48;;;3.85;;
79023;SDS011;70306;44.764;37.688;2023-10-13T02:25:02;13.60;;;3.10;;
79023;SDS011;70306;44.764;37.688;2023-10-13T02:26:08;11.75;;;3.88;;
79023;SDS011;70306;44.764;37.688;2023-10-13T02:27:17;6.80;;;3.20;;
79023;SDS011;70306;44.764;37.688;2023-10-13T02:28:24;6.43;;;2.72;;
79023;SDS011;70306;44.764;37.688;2023-10-13T02:29:29;6.75;;;2.83;;
79023;SDS011;70306;44.764;37.688;2023-10-13T02:30:31;12.63;;;3.13;;
79023;SDS011;70306;44.764;37.688;2023-10-13T02:31:37;18.75;;;3.13;;
79023;SDS011;70306;44.764;37.688;2023-10-13T02:32:40;23.65;;;4.63;;
79023;SDS011;70306;44.764;37.688;2023-10-13T02:33:43;41.58;;;4.80;;
79023;SDS011;70306;44.764;37.688;2023-10-13T02:34:46;28.45;;;4.85;;
79023;SDS011;70306;44.764;37.688;2023-10-13T02:35:48;57.92;;;6.40;;
79023;SDS011;70306;44.764;37.688;2023-10-13T02:36:56;23.30;;;4.60;;
79023;SDS011;70306;44.764;37.688;2023-10-13T02:37:58;22.15;;;3.60;;
79023;SDS011;70306;44.764;37.688;2023-10-13T02:39:07;87.78;;;8.15;;
79023;SDS011;70306;44.764;37.688;2023-10-13T02:40:09;28.33;;;3.55;;
79023;SDS011;70306;44.764;37.688;2023-10-13T02:41:13;16.75;;;3.20;;
79023;SDS011;70306;44.764;37.688;2023-10-13T02:42:26;12.88;;;3.28;;
79023;SDS011;70306;44.764;37.688;2023-10-13T02:43:29;31.10;;;3.70;;
79023;SDS011;70306;44.764;37.688;2023-10-13T02:44:34;9.90;;;3.47;;
79023;SDS011;70306;44.764;37.688;2023-10-13T02:45:38;21.73;;;3.53;;
79023;SDS011;70306;44.764;37.688;2023-10-13T02:46:40;18.83;;;3.35;;
79023;SDS011;70306;44.764;37.688;2023-10-13T02:47:41;31.42;;;4.60;;
79023;SDS011;70306;44.764;37.688;2023-10-13T02:48:46;25.60;;;4.20;;
79023;SDS011;70306;44.764;37.688;2023-10-13T02:49:54;20.60;;;3.75;;
79023;SDS011;70306;44.764;37.688;2023-10-13T02:50:57;16.88;;;4.22;;
79023;SDS011;70306;44.764;37.688;2023-10-13T02:52:03;16.58;;;3.25;;
79023;SDS011;70306;44.764;37.688;2023-10-13T02:53:10;11.43;;;2.58;;
79023;SDS011;70306;44.764;37.688;2023-10-13T02:54:16;11.65;;;3.00;;
79023;SDS011;70306;44.764;37.688;2023-10-13T02:55:21;8.95;;;2.95;;
79023;SDS011;70306;44.764;37.688;2023-10-13T02:56:27;23.52;;;3.33;;
79023;SDS011;70306;44.764;37.688;2023-10-13T02:57:29;11.63;;;3.65;;
79023;SDS011;70306;44.764;37.688;2023-10-13T02:58:35;14.52;;;3.55;;
79023;SDS011;70306;44.764;37.688;2023-10-13T02:59:41;10.52;;;2.72;;
79023;SDS011;70306;44.764;37.688;2023-10-13T03:00:52;21.75;;;3.97;;
79023;SDS011;70306;44.764;37.688;2023-10-13T03:01:54;20.58;;;4.95;;
79023;SDS011;70306;44.764;37.688;2023-10-13T03:02:57;14.10;;;3.47;;
79023;SDS011;70306;44.764;37.688;2023-10-13T03:04:02;12.77;;;3.17;;
79023;SDS011;70306;44.764;37.688;2023-10-13T03:05:05;27.88;;;4.25;;
79023;SDS011;70306;44.764;37.688;2023-10-13T03:06:10;16.98;;;3.38;;
79023;SDS011;70306;44.764;37.688;2023-10-13T03:07:13;15.60;;;3.17;;
79023;SDS011;70306;44.764;37.688;2023-10-13T03:08:25;8.77;;;3.55;;
79023;SDS011;70306;44.764;37.688;2023-10-13T03:09:29;11.75;;;2.53;;
79023;SDS011;70306;44.764;37.688;2023-10-13T03:10:31;14.63;;;3.60;;
79023;SDS011;70306;44.764;37.688;2023-10-13T03:11:34;39.10;;;4.60;;
79023;SDS011;70306;44.764;37.688;2023-10-13T03:12:36;63.67;;;7.35;;
79023;SDS011;70306;44.764;37.688;2023-10-13T03:13:42;53.75;;;4.22;;
79023;SDS011;70306;44.764;37.688;2023-10-13T03:14:45;28.75;;;3.63;;
79023;SDS011;70306;44.764;37.688;2023-10-13T03:15:50;13.30;;;3.70;;
79023;SDS011;70306;44.764;37.688;2023-10-13T03:16:53;56.15;;;5.13;;
79023;SDS011;70306;44.764;37.688;2023-10-13T03:17:56;70.80;;;7.05;;
79023;SDS011;70306;44.764;37.688;2023-10-13T03:19:02;39.28;;;4.75;;
79023;SDS011;70306;44.764;37.688;2023-10-13T03:20:09;18.05;;;3.45;;
79023;SDS011;70306;44.764;37.688;2023-10-13T03:21:17;6.97;;;2.63;;
79023;SDS011;70306;44.764;37.688;2023-10-13T03:22:29;70.97;;;6.93;;
79023;SDS011;70306;44.764;37.688;2023-10-13T03:23:32;11.65;;;3.05;;
79023;SDS011;70306;44.764;37.688;2023-10-13T03:24:46;21.58;;;4.18;;
79023;SDS011;70306;44.764;37.688;2023-10-13T03:25:48;37.40;;;4.80;;
79023;SDS011;70306;44.764;37.688;2023-10-13T03:26:56;50.53;;;4.90;;
79023;SDS011;70306;44.764;37.688;2023-10-13T03:28:00;52.10;;;4.93;;
79023;SDS011;70306;44.764;37.688;2023-10-13T03:29:03;28.17;;;3.95;;
79023;SDS011;70306;44.764;37.688;2023-10-13T03:30:10;56.20;;;6.60;;
79023;SDS011;70306;44.764;37.688;2023-10-13T03:31:16;42.03;;;4.90;;
79023;SDS011;70306;44.764;37.688;2023-10-13T03:32:19;52.28;;;4.97;;
79023;SDS011;70306;44.764;37.688;2023-10-13T03:33:21;92.88;;;6.97;;
79023;SDS011;70306;44.764;37.688;2023-10-13T03:34:30;65.03;;;7.50;;
79023;SDS011;70306;44.764;37.688;2023-10-13T03:35:33;56.13;;;5.70;;
79023;SDS011;70306;44.764;37.688;2023-10-13T03:36:39;63.05;;;5.57;;
79023;SDS011;70306;44.764;37.688;2023-10-13T03:37:58;54.53;;;7.90;;
79023;SDS011;70306;44.764;37.688;2023-10-13T03:39:00;27.55;;;4.20;;
79023;SDS011;70306;44.764;37.688;2023-10-13T03:40:02;24.23;;;4.72;;
79023;SDS011;70306;44.764;37.688;2023-10-13T03:41:28;44.15;;;3.88;;
79023;SDS011;70306;44.764;37.688;2023-10-13T03:42:31;35.38;;;4.05;;
79023;SDS011;70306;44.764;37.688;2023-10-13T03:43:34;47.85;;;6.60;;
79023;SDS011;70306;44.764;37.688;2023-10-13T03:44:46;37.67;;;5.60;;
79023;SDS011;70306;44.764;37.688;2023-10-13T03:45:48;77.47;;;8.07;;
79023;SDS011;70306;44.764;37.688;2023-10-13T03:47:02;62.95;;;6.63;;
79023;SDS011;70306;44.764;37.688;2023-10-13T03:48:19;47.08;;;4.93;;
79023;SDS011;70306;44.764;37.688;2023-10-13T03:49:27;29.27;;;3.30;;
79023;SDS011;70306;44.764;37.688;2023-10-13T03:50:30;28.77;;;3.72;;
79023;SDS011;70306;44.764;37.688;2023-10-13T03:51:33;30.92;;;3.72;;
79023;SDS011;70306;44.764;37.688;2023-10-13T03:52:35;19.83;;;3.60;;
79023;SDS011;70306;44.764;37.688;2023-10-13T03:53:38;26.05;;;3.63;;
79023;SDS011;70306;44.764;37.688;2023-10-13T03:54:56;34.05;;;4.22;;
79023;SDS011;70306;44.764;37.688;2023-10-13T03:56:00;25.15;;;4.50;;
79023;SDS011;70306;44.764;37.688;2023-10-13T03:57:10;75.40;;;6.50;;
79023;SDS011;70306;44.764;37.688;2023-10-13T03:58:15;35.60;;;6.03;;
79023;SDS011;70306;44.764;37.688;2023-10-13T03:59:18;38.17;;;5.35;;
79023;SDS011;70306;44.764;37.688;2023-10-13T04:00:22;31.52;;;5.22;;
79023;SDS011;70306;44.764;37.688;2023-10-13T04:01:33;18.33;;;4.20;;
79023;SDS011;70306;44.764;37.688;2023-10-13T04:02:58;72.88;;;6.03;;
79023;SDS011;70306;44.764;37.688;2023-10-13T04:04:03;85.07;;;7.13;;
79023;SDS011;70306;44.764;37.688;2023-10-13T04:05:11;24.65;;;5.13;;
79023;SDS011;70306;44.764;37.688;2023-10-13T04:06:31;36.03;;;5.50;;
79023;SDS011;70306;44.764;37.688;2023-10-13T04:07:48;10.20;;;3.55;;
79023;SDS011;70306;44.764;37.688;2023-10-13T04:09:08;39.70;;;5.30;;
79023;SDS011;70306;44.764;37.688;2023-10-13T04:10:29;130.70;;;11.10;;
79023;SDS011;70306;44.764;37.688;2023-10-13T04:11:46;200.23;;;18.02;;
79023;SDS011;70306;44.764;37.688;2023-10-13T04:13:10;181.23;;;17.30;;
79023;SDS011;70306;44.764;37.688;2023-10-13T04:14:32;162.55;;;14.40;;
79023;SDS011;70306;44.764;37.688;2023-10-13T04:15:56;110.20;;;10.93;;
79023;SDS011;70306;44.764;37.688;2023-10-13T04:17:17;95.25;;;7.55;;
79023;SDS011;70306;44.764;37.688;2023-10-13T04:18:28;49.13;;;7.03;;
79023;SDS011;70306;44.764;37.688;2023-10-13T04:21:10;118.35;;;12.38;;
79023;SDS011;70306;44.764;37.688;2023-10-13T04:22:33;72.85;;;7.20;;
79023;SDS011;70306;44.764;37.688;2023-10-13T04:23:47;63.05;;;6.07;;
79023;SDS011;70306;44.764;37.688;2023-10-13T04:25:08;48.10;;;6.82;;
79023;SDS011;70306;44.764;37.688;2023-10-13T04:26:31;54.85;;;6.75;;
79023;SDS011;70306;44.764;37.688;2023-10-13T04:27:38;62.50;;;5.30;;
79023;SDS011;70306;44.764;37.688;2023-10-13T04:28:41;86.55;;;8.82;;
79023;SDS011;70306;44.764;37.688;2023-10-13T04:29:52;116.38;;;10.52;;
79023;SDS011;70306;44.764;37.688;2023-10-13T04:31:09;73.40;;;6.28;;
79023;SDS011;70306;44.764;37.688;2023-10-13T04:32:15;48.22;;;6.75;;
79023;SDS011;70306;44.764;37.688;2023-10-13T04:33:38;41.08;;;9.38;;
79023;SDS011;70306;44.764;37.688;2023-10-13T04:34:52;18.23;;;7.45;;
79023;SDS011;70306;44.764;37.688;2023-10-13T04:36:05;188.30;;;15.00;;
79023;SDS011;70306;44.764;37.688;2023-10-13T04:37:15;56.75;;;6.93;;
79023;SDS011;70306;44.764;37.688;2023-10-13T04:38:34;35.67;;;5.32;;
79023;SDS011;70306;44.764;37.688;2023-10-13T04:39:56;60.15;;;5.88;;
79023;SDS011;70306;44.764;37.688;2023-10-13T04:41:10;85.07;;;9.35;;
79023;SDS011;70306;44.764;37.688;2023-10-13T04:42:23;154.73;;;14.05;;
79023;SDS011;70306;44.764;37.688;2023-10-13T04:43:46;168.13;;;20.85;;
79023;SDS011;70306;44.764;37.688;2023-10-13T04:44:57;283.77;;;33.90;;
79023;SDS011;70306;44.764;37.688;2023-10-13T04:46:04;158.95;;;19.88;;
79023;SDS011;70306;44.764;37.688;2023-10-13T04:47:42;312.80;;;31.35;;
79023;SDS011;70306;44.764;37.688;2023-10-13T04:48:58;303.73;;;26.33;;
79023;SDS011;70306;44.764;37.688;2023-10-13T04:50:11;323.60;;;32.70;;
79023;SDS011;70306;44.764;37.688;2023-10-13T04:51:24;281.38;;;30.85;;
79023;SDS011;70306;44.764;37.688;2023-10-13T04:52:44;154.55;;;15.15;;
79023;SDS011;70306;44.764;37.688;2023-10-13T04:54:02;156.10;;;18.83;;
79023;SDS011;70306;44.764;37.688;2023-10-13T04:55:27;164.02;;;14.68;;
79023;SDS011;70306;44.764;37.688;2023-10-13T04:56:55;175.45;;;13.55;;
79023;SDS011;70306;44.764;37.688;2023-10-13T04:58:16;112.28;;;11.35;;
79023;SDS011;70306;44.764;37.688;2023-10-13T04:59:33;72.55;;;7.40;;
79023;SDS011;70306;44.764;37.688;2023-10-13T05:00:39;203.52;;;16.17;;
79023;SDS011;70306;44.764;37.688;2023-10-13T05:01:47;126.18;;;11.48;;
79023;SDS011;70306;44.764;37.688;2023-10-13T05:03:07;171.73;;;13.77;;
79023;SDS011;70306;44.764;37.688;2023-10-13T05:04:40;137.57;;;13.73;;
79023;SDS011;70306;44.764;37.688;2023-10-13T05:06:01;122.78;;;11.95;;
79023;SDS011;70306;44.764;37.688;2023-10-13T05:07:30;112.75;;;16.10;;
79023;SDS011;70306;44.764;37.688;2023-10-13T05:08:50;103.47;;;13.10;;
79023;SDS011;70306;44.764;37.688;2023-10-13T05:10:11;66.68;;;8.57;;
79023;SDS011;70306;44.764;37.688;2023-10-13T05:11:31;94.15;;;10.70;;
79023;SDS011;70306;44.764;37.688;2023-10-13T05:12:52;109.25;;;9.88;;
79023;SDS011;70306;44.764;37.688;2023-10-13T05:14:12;63.17;;;9.02;;
79023;SDS011;70306;44.764;37.688;2023-10-13T05:15:33;44.72;;;7.70;;
79023;SDS011;70306;44.764;37.688;2023-10-13T05:16:53;72.97;;;11.98;;
79023;SDS011;70306;44.764;37.688;2023-10-13T05:18:14;77.32;;;9.10;;
79023;SDS011;70306;44.764;37.688;2023-10-13T05:19:36;72.80;;;12.48;;
79023;SDS011;70306;44.764;37.688;2023-10-13T05:21:17;122.18;;;15.75;;
79023;SDS011;70306;44.764;37.688;2023-10-13T05:22:38;52.97;;;9.80;;
79023;SDS011;70306;44.764;37.688;2023-10-13T05:23:58;19.02;;;4.93;;
79023;SDS011;70306;44.764;37.688;2023-10-13T05:25:19;13.10;;;3.75;;
79023;SDS011;70306;44.764;37.688;2023-10-13T05:27:00;18.75;;;4.70;;
79023;SDS011;70306;44.764;37.688;2023-10-13T05:28:20;57.83;;;6.50;;
79023;SDS011;70306;44.764;37.688;2023-10-13T05:29:41;37.40;;;5.32;;
79023;SDS011;70306;44.764;37.688;2023-10-13T05:31:03;41.42;;;5.57;;
79023;SDS011;70306;44.764;37.688;2023-10-13T05:32:24;30.75;;;6.57;;
79023;SDS011;70306;44.764;37.688;2023-10-13T05:33:46;91.40;;;9.40;;
79023;SDS011;70306;44.764;37.688;2023-10-13T05:35:06;13.23;;;4.10;;
79023;SDS011;70306;44.764;37.688;2023-10-13T05:36:27;102.53;;;11.98;;
79023;SDS011;70306;44.764;37.688;2023-10-13T05:37:47;33.42;;;4.80;;
79023;SDS011;70306;44.764;37.688;2023-10-13T05:39:08;33.35;;;5.15;;
79023;SDS011;70306;44.764;37.688;2023-10-13T05:40:29;28.05;;;5.13;;
79023;SDS011;70306;44.764;37.688;2023-10-13T05:41:49;45.38;;;5.57;;
79023;SDS011;70306;44.764;37.688;2023-10-13T05:43:09;80.85;;;8.82;;
79023;SDS011;70306;44.764;37.688;2023-10-13T05:44:30;35.53;;;9.65;;
79023;SDS011;70306;44.764;37.688;2023-10-13T05:45:38;48.90;;;7.63;;
79023;SDS011;70306;44.764;37.688;2023-10-13T05:47:15;41.42;;;7.18;;
79023;SDS011;70306;44.764;37.688;2023-10-13T05:48:36;74.95;;;7.72;;
79023;SDS011;70306;44.764;37.688;2023-10-13T05:50:04;13.57;;;3.50;;
79023;SDS011;70306;44.764;37.688;2023-10-13T05:51:28;17.00;;;4.65;;
79023;SDS011;70306;44.764;37.688;2023-10-13T05:52:36;36.22;;;6.68;;
79023;SDS011;70306;44.764;37.688;2023-10-13T05:53:57;21.77;;;4.75;;
79023;SDS011;70306;44.764;37.688;2023-10-13T05:55:19;24.10;;;4.85;;
79023;SDS011;70306;44.764;37.688;2023-10-13T05:58:00;15.45;;;3.97;;
79023;SDS011;70306;44.764;37.688;2023-10-13T05:59:20;43.30;;;7.60;;
79023;SDS011;70306;44.764;37.688;2023-10-13T06:00:41;19.10;;;4.00;;
79023;SDS011;70306;44.764;37.688;2023-10-13T06:02:02;38.50;;;6.88;;
79023;SDS011;70306;44.764;37.688;2023-10-13T06:03:22;16.23;;;4.72;;
79023;SDS011;70306;44.764;37.688;2023-10-13T06:04:43;9.77;;;3.72;;
79023;SDS011;70306;44.764;37.688;2023-10-13T06:06:06;18.15;;;4.45;;
79023;SDS011;70306;44.764;37.688;2023-10-13T06:07:27;45.72;;;15.23;;
79023;SDS011;70306;44.764;37.688;2023-10-13T06:08:48;50.53;;;11.05;;
79023;SDS011;70306;44.764;37.688;2023-10-13T06:10:08;133.32;;;13.60;;
79023;SDS011;70306;44.764;37.688;2023-10-13T06:11:29;40.30;;;5.90;;
79023;SDS011;70306;44.764;37.688;2023-10-13T06:12:49;20.60;;;4.45;;
79023;SDS011;70306;44.764;37.688;2023-10-13T06:14:09;52.67;;;7.53;;
79023;SDS011;70306;44.764;37.688;2023-10-13T06:15:29;70.75;;;9.20;;
79023;SDS011;70306;44.764;37.688;2023-10-13T06:16:58;36.88;;;5.40;;
79023;SDS011;70306;44.764;37.688;2023-10-13T06:18:18;17.42;;;3.50;;
79023;SDS011;70306;44.764;37.688;2023-10-13T06:19:40;51.00;;;7.57;;
79023;SDS011;70306;44.764;37.688;2023-10-13T06:21:00;34.17;;;6.38;;
79023;SDS011;70306;44.764;37.688;2023-10-13T06:22:21;14.77;;;4.05;;
79023;SDS011;70306;44.764;37.688;2023-10-13T06:23:41;53.25;;;7.90;;
79023;SDS011;70306;44.764;37.688;2023-10-13T06:25:02;38.55;;;5.68;;
79023;SDS011;70306;44.764;37.688;2023-10-13T06:26:22;17.63;;;4.55;;
79023;SDS011;70306;44.764;37.688;2023-10-13T06:27:42;119.25;;;12.82;;
79023;SDS011;70306;44.764;37.688;2023-10-13T06:29:02;74.32;;;9.75;;
79023;SDS011;70306;44.764;37.688;2023-10-13T06:30:04;66.55;;;6.35;;
79023;SDS011;70306;44.764;37.688;2023-10-13T06:31:08;14.18;;;4.78;;
79023;SDS011;70306;44.764;37.688;2023-10-13T06:32:22;36.50;;;5.90;;
79023;SDS011;70306;44.764;37.688;2023-10-13T06:33:27;38.35;;;5.18;;
79023;SDS011;70306;44.764;37.688;2023-10-13T06:34:34;22.02;;;4.63;;
79023;SDS011;70306;44.764;37.688;2023-10-13T06:35:49;32.90;;;6.15;;
79023;SDS011;70306;44.764;37.688;2023-10-13T06:36:51;58.75;;;11.73;;
79023;SDS011;70306;44.764;37.688;2023-10-13T06:37:55;46.42;;;7.78;;
79023;SDS011;70306;44.764;37.688;2023-10-13T06:39:01;37.92;;;6.88;;
79023;SDS011;70306;44.764;37.688;2023-10-13T06:40:26;71.05;;;12.65;;
79023;SDS011;70306;44.764;37.688;2023-10-13T06:41:30;23.70;;;5.13;;
79023;SDS011;70306;44.764;37.688;2023-10-13T06:42:33;20.95;;;4.03;;
79023;SDS011;70306;44.764;37.688;2023-10-13T06:43:43;12.00;;;3.38;;
79023;SDS011;70306;44.764;37.688;2023-10-13T06:44:45;48.00;;;7.60;;
79023;SDS011;70306;44.764;37.688;2023-10-13T06:45:48;21.60;;;5.25;;
79023;SDS011;70306;44.764;37.688;2023-10-13T06:47:01;19.80;;;7.60;;
79023;SDS011;70306;44.764;37.688;2023-10-13T06:48:05;29.40;;;5.32;;
79023;SDS011;70306;44.764;37.688;2023-10-13T06:49:07;47.03;;;6.80;;
79023;SDS011;70306;44.764;37.688;2023-10-13T06:50:12;24.27;;;4.47;;
79023;SDS011;70306;44.764;37.688;2023-10-13T06:51:17;118.65;;;14.45;;